Time;durP1;ratioP1;P1;durP2;ratioP2;P2;SDS_P1;SDS_P2;PMS_P1;PMS_P2;Temp;Humidity;BMP_temperature;BMP_pressure;BME280_temperature;BME280_humidity;BME280_pressure;Samples;Min_cycle;Max_cycle;Signal;HPM_P1;HPM_P2
2022/01/29 00:03:52;;;;;;;17.95;6.22;;;7.40;99.90;;;;;;20852932;28;20046;-45
2022/01/29 00:13:53;;;;;;;13.10;6.63;;;7.40;99.90;;;;;;20811469;28;20122;-45
2022/01/29 00:23:58;;;;;;;15.38;5.28;;;7.40;99.90;;;;;;20815552;28;20072;-45
2022/01/29 00:33:59;;;;;;;12.73;4.90;;;7.40;99.90;;;;;;20842903;28;20087;-45
2022/01/29 00:44:00;;;;;;;14.93;5.40;;;7.40;99.90;;;;;;20836769;28;20049;-45
2022/01/29 00:54:01;;;;;;;12.15;5.13;;;7.30;99.90;;;;;;20837967;28;20088;-45
2022/01/29 01:04:02;;;;;;;8.95;3.72;;;7.30;99.90;;;;;;20847392;28;20037;-45
2022/01/29 01:14:03;;;;;;;11.13;4.55;;;7.40;99.90;;;;;;20848592;28;20070;-45
2022/01/29 01:24:04;;;;;;;12.55;5.05;;;7.40;99.90;;;;;;20838364;28;20056;-45
2022/01/29 01:34:06;;;;;;;15.38;4.35;;;7.50;99.90;;;;;;20829551;28;20057;-45
2022/01/29 01:44:10;;;;;;;8.20;3.65;;;7.50;99.90;;;;;;20812972;28;20523;-45
2022/01/29 01:54:11;;;;;;;8.85;3.08;;;7.60;99.90;;;;;;20835584;28;20041;-45
2022/01/29 02:04:12;;;;;;;11.82;3.05;;;7.70;99.90;;;;;;20841927;28;20370;-45
2022/01/29 02:14:13;;;;;;;12.32;3.42;;;7.80;99.90;;;;;;20841560;28;20052;-45
2022/01/29 02:24:13;;;;;;;5.28;2.78;;;7.80;99.90;;;;;;20852651;28;20490;-45
2022/01/29 02:34:14;;;;;;;6.35;3.17;;;7.90;99.90;;;;;;20839570;28;20503;-45
2022/01/29 02:44:21;;;;;;;10.52;3.95;;;7.90;99.90;;;;;;20843986;28;20049;-45
2022/01/29 02:54:23;;;;;;;10.05;4.13;;;8.00;99.90;;;;;;20840404;28;20079;-45
2022/01/29 03:04:24;;;;;;;13.20;3.60;;;8.10;99.90;;;;;;20833833;28;20052;-45
2022/01/29 03:14:25;;;;;;;11.02;3.45;;;8.20;99.90;;;;;;20838186;28;20045;-45
2022/01/29 03:24:25;;;;;;;17.08;4.30;;;8.30;99.90;;;;;;20819748;28;20065;-45
2022/01/29 03:34:26;;;;;;;8.27;3.10;;;8.40;99.90;;;;;;20837234;28;20057;-45
2022/01/29 03:44:26;;;;;;;13.10;3.60;;;8.40;99.90;;;;;;20836287;28;20287;-45
2022/01/29 03:54:27;;;;;;;19.07;4.43;;;8.60;99.90;;;;;;20843629;28;20048;-45
2022/01/29 04:04:28;;;;;;;7.35;3.38;;;8.60;99.90;;;;;;20836593;28;20443;-45
2022/01/29 04:14:33;;;;;;;9.85;4.75;;;8.60;99.90;;;;;;20828278;28;20402;-45
2022/01/29 04:24:34;;;;;;;9.15;3.33;;;8.70;99.90;;;;;;20824839;28;20044;-45
2022/01/29 04:34:35;;;;;;;8.27;2.83;;;8.70;99.90;;;;;;20809837;28;20048;-45
2022/01/29 04:44:35;;;;;;;8.43;2.93;;;8.80;99.90;;;;;;20823026;28;20052;-45
2022/01/29 04:54:36;;;;;;;9.27;3.40;;;8.80;99.90;;;;;;20809034;28;20079;-45
2022/01/29 05:04:37;;;;;;;16.33;3.83;;;8.90;99.90;;;;;;20786333;28;20049;-45
2022/01/29 05:14:52;;;;;;;7.57;2.60;;;8.90;99.90;;;;;;20805007;28;20029;-45
2022/01/29 05:35:12;;;;;;;6.85;2.40;;;9.00;99.90;;;;;;20832341;28;20041;-45
2022/01/29 05:45:13;;;;;;;14.97;3.87;;;9.00;99.90;;;;;;20827555;28;20534;-45
2022/01/29 05:55:13;;;;;;;10.10;2.88;;;9.00;99.90;;;;;;20811548;28;20295;-45
2022/01/29 06:05:14;;;;;;;8.37;3.03;;;9.00;99.90;;;;;;20820632;28;20049;-45
2022/01/29 06:15:15;;;;;;;9.53;2.80;;;8.90;99.90;;;;;;20814821;28;20511;-45
2022/01/29 06:25:16;;;;;;;8.18;3.28;;;8.80;99.90;;;;;;20834271;28;20365;-45
2022/01/29 06:35:16;;;;;;;7.80;2.88;;;8.80;99.90;;;;;;20848569;28;20039;-45
2022/01/29 06:45:17;;;;;;;17.17;3.33;;;8.70;99.90;;;;;;20825798;28;20325;-45
2022/01/29 06:55:18;;;;;;;5.87;2.00;;;8.80;99.90;;;;;;20832011;28;20799;-45
2022/01/29 07:05:19;;;;;;;5.40;1.88;;;8.90;99.90;;;;;;20837522;28;20801;-45
2022/01/29 07:15:19;;;;;;;7.73;2.07;;;9.00;99.90;;;;;;20832097;28;21191;-45
2022/01/29 07:25:20;;;;;;;11.80;2.17;;;9.10;99.90;;;;;;20827205;28;20302;-45
2022/01/29 07:35:21;;;;;;;4.57;1.40;;;9.00;99.90;;;;;;20827007;28;20387;-45
2022/01/29 07:45:21;;;;;;;4.53;2.03;;;9.10;99.90;;;;;;20829548;28;20045;-45
2022/01/29 07:55:23;;;;;;;4.72;1.50;;;9.20;99.90;;;;;;20825098;28;20306;-45
2022/01/29 08:05:24;;;;;;;4.18;1.92;;;9.20;99.90;;;;;;20845721;28;20071;-45
2022/01/29 08:15:24;;;;;;;7.30;1.50;;;9.20;99.90;;;;;;20873841;28;20042;-45
2022/01/29 08:25:29;;;;;;;11.82;1.90;;;9.20;99.90;;;;;;20831806;28;20087;-45
2022/01/29 08:35:30;;;;;;;3.72;1.52;;;9.30;99.90;;;;;;20834904;28;20052;-45
2022/01/29 08:45:31;;;;;;;6.80;1.92;;;9.50;99.90;;;;;;20841917;28;20365;-45
2022/01/29 08:55:36;;;;;;;4.47;1.38;;;9.60;99.90;;;;;;20834349;28;20041;-45
2022/01/29 09:05:38;;;;;;;4.97;1.08;;;9.80;99.90;;;;;;20831308;28;20562;-45
2022/01/29 09:15:38;;;;;;;8.27;1.60;;;9.70;99.90;;;;;;20824197;28;20426;-45
2022/01/29 09:25:40;;;;;;;7.65;1.58;;;9.70;99.90;;;;;;20841827;28;20048;-45
2022/01/29 09:35:41;;;;;;;4.07;0.98;;;9.80;99.90;;;;;;20812178;28;20425;-44
2022/01/29 09:45:43;;;;;;;2.72;0.95;;;9.90;99.90;;;;;;20818615;28;20070;-45
2022/01/29 09:55:45;;;;;;;1.52;0.43;;;10.00;99.90;;;;;;20825324;28;20040;-45
2022/01/29 10:05:50;;;;;;;1.52;0.60;;;10.20;99.90;;;;;;20834978;28;20064;-45
2022/01/29 10:15:53;;;;;;;2.88;0.90;;;10.30;99.90;;;;;;20827885;28;20029;-45
2022/01/29 10:25:54;;;;;;;2.97;0.55;;;10.60;99.90;;;;;;20822354;28;20073;-45
2022/01/29 10:36:07;;;;;;;3.35;0.60;;;10.60;99.90;;;;;;20821156;28;20040;-45
2022/01/29 10:46:24;;;;;;;6.10;0.90;;;10.80;99.90;;;;;;20822993;28;20060;-45
2022/01/29 10:56:25;;;;;;;5.05;1.48;;;11.20;99.90;;;;;;20767194;28;20533;-45
2022/01/29 11:06:33;;;;;;;2.42;0.45;;;11.50;99.90;;;;;;20773112;28;20589;-45
2022/01/29 11:16:36;;;;;;;6.35;1.17;;;11.20;99.90;;;;;;20766717;28;20047;-46
2022/01/29 11:26:39;;;;;;;1.17;0.43;;;11.10;99.90;;;;;;20773609;28;20136;-45
2022/01/29 11:36:49;;;;;;;4.15;0.55;;;11.20;99.90;;;;;;20771644;28;20110;-45
2022/01/29 11:46:50;;;;;;;1.80;0.70;;;11.20;99.90;;;;;;20773243;28;20072;-45
2022/01/29 11:57:14;;;;;;;2.27;0.70;;;11.30;99.90;;;;;;20765649;28;20052;-46
2022/01/29 12:07:28;;;;;;;1.50;0.70;;;11.80;99.90;;;;;;20763073;28;20061;-45
2022/01/29 12:17:41;;;;;;;3.03;0.70;;;12.00;99.90;;;;;;20765599;28;20057;-45
2022/01/29 12:27:50;;;;;;;1.10;0.32;;;12.00;99.90;;;;;;20757076;28;20060;-47
2022/01/29 12:37:54;;;;;;;2.58;0.57;;;11.80;99.90;;;;;;20769611;28;20052;-46
2022/01/29 12:48:12;;;;;;;1.70;0.40;;;11.90;99.90;;;;;;20746230;28;20078;-46
2022/01/29 12:58:27;;;;;;;4.38;0.63;;;12.00;99.90;;;;;;20816570;28;20048;-45
2022/01/29 13:08:27;;;;;;;3.50;1.52;;;12.50;99.90;;;;;;20835230;28;20040;-45
2022/01/29 13:18:30;;;;;;;10.75;0.98;;;12.30;99.90;;;;;;20840982;28;20525;-45
2022/01/29 13:28:38;;;;;;;3.58;0.68;;;12.10;99.90;;;;;;20845018;28;20049;-45
2022/01/29 13:38:40;;;;;;;4.97;0.55;;;11.60;99.90;;;;;;20836358;28;20183;-45
2022/01/29 13:48:53;;;;;;;1.77;0.52;;;11.40;99.90;;;;;;20845249;28;20092;-45
2022/01/29 13:59:03;;;;;;;3.22;0.38;;;11.40;99.90;;;;;;20852389;28;20051;-46
2022/01/29 14:09:07;;;;;;;1.08;0.30;;;11.50;99.90;;;;;;20857861;28;20515;-46
2022/01/29 14:19:19;;;;;;;13.80;4.57;;;11.50;99.90;;;;;;20848349;28;20500;-45
2022/01/29 14:29:19;;;;;;;1.73;0.77;;;11.50;99.90;;;;;;20844820;28;20047;-45
2022/01/29 14:39:22;;;;;;;1.45;0.95;;;11.70;99.90;;;;;;20843131;28;20048;-45
2022/01/29 14:49:25;;;;;;;4.63;1.13;;;11.70;99.90;;;;;;20853532;28;20052;-45
2022/01/29 14:59:26;;;;;;;3.53;1.10;;;11.40;99.90;;;;;;20841682;28;20342;-45
2022/01/29 15:09:26;;;;;;;6.77;1.47;;;11.20;99.90;;;;;;20840794;28;20037;-46
2022/01/29 15:19:27;;;;;;;6.63;0.70;;;11.10;99.90;;;;;;20839000;28;20974;-45
2022/01/29 15:29:28;;;;;;;4.67;2.13;;;11.30;99.90;;;;;;20838449;28;20045;-45
2022/01/29 15:39:29;;;;;;;5.43;1.05;;;11.30;99.90;;;;;;20833047;28;20295;-45
2022/01/29 15:49:30;;;;;;;0.93;0.30;;;11.40;99.90;;;;;;20823118;28;20486;-45
2022/01/29 15:59:31;;;;;;;0.93;0.45;;;11.60;99.90;;;;;;20825678;28;20519;-45
2022/01/29 16:09:32;;;;;;;4.03;0.60;;;11.70;99.90;;;;;;20819571;28;20040;-45
2022/01/29 16:19:33;;;;;;;4.07;0.63;;;11.60;99.90;;;;;;20828269;28;20516;-45
2022/01/29 16:29:34;;;;;;;2.80;0.63;;;11.50;99.90;;;;;;20822222;28;20076;-45
2022/01/29 16:39:34;;;;;;;2.58;0.45;;;11.50;99.90;;;;;;20800946;28;20665;-45
2022/01/29 16:49:35;;;;;;;6.90;0.70;;;11.40;99.90;;;;;;20801580;28;20041;-45
2022/01/29 16:59:36;;;;;;;4.45;0.80;;;11.40;99.90;;;;;;20799259;28;20045;-45
2022/01/29 17:09:36;;;;;;;5.80;1.03;;;11.20;99.90;;;;;;20798830;28;20166;-45
2022/01/29 17:19:37;;;;;;;4.57;0.87;;;10.90;99.90;;;;;;20794929;28;20848;-45
2022/01/29 17:29:38;;;;;;;9.10;0.93;;;10.60;99.90;;;;;;20828164;28;20144;-45
2022/01/29 17:39:38;;;;;;;4.03;0.88;;;10.40;99.90;;;;;;20820483;28;20311;-45
2022/01/29 17:49:40;;;;;;;5.07;1.67;;;10.20;99.90;;;;;;20804986;28;20048;-45
2022/01/29 17:59:41;;;;;;;10.68;2.47;;;10.10;99.90;;;;;;20833877;28;20041;-45
2022/01/29 18:09:42;;;;;;;7.43;2.50;;;10.00;99.90;;;;;;20834841;28;20131;-45
2022/01/29 18:19:43;;;;;;;11.13;1.92;;;9.90;99.90;;;;;;20882358;28;20073;-45
2022/01/29 18:29:44;;;;;;;4.97;1.73;;;9.70;99.90;;;;;;20852664;28;20037;-45
2022/01/29 18:39:46;;;;;;;5.37;1.13;;;9.60;99.90;;;;;;20865898;28;20524;-45
2022/01/29 18:49:47;;;;;;;7.55;2.45;;;9.60;99.90;;;;;;20831914;28;20047;-45
2022/01/29 18:59:48;;;;;;;14.02;1.85;;;9.60;99.90;;;;;;20840352;28;20054;-45
2022/01/29 19:09:48;;;;;;;12.07;2.23;;;9.60;99.90;;;;;;20848588;28;20046;-45
2022/01/29 19:19:50;;;;;;;11.23;1.85;;;9.40;99.90;;;;;;20834551;28;20643;-45
2022/01/29 19:29:52;;;;;;;9.40;2.40;;;9.40;99.90;;;;;;20821762;28;20046;-45
2022/01/29 19:39:53;;;;;;;10.85;2.08;;;9.40;99.90;;;;;;20837113;28;20199;-44
2022/01/29 19:49:53;;;;;;;6.65;1.50;;;9.40;99.90;;;;;;20799171;28;20053;-45
2022/01/29 19:59:55;;;;;;;8.93;1.70;;;9.30;99.90;;;;;;20764352;28;20626;-44
2022/01/29 20:09:55;;;;;;;7.05;1.55;;;9.30;99.90;;;;;;20732015;28;20402;-44
2022/01/29 20:19:56;;;;;;;8.35;1.70;;;9.20;99.90;;;;;;20742682;28;20046;-45
2022/01/29 20:29:57;;;;;;;6.85;0.95;;;9.00;99.90;;;;;;20728121;28;20093;-45
2022/01/29 20:39:58;;;;;;;5.18;1.77;;;9.00;99.90;;;;;;20737786;28;20473;-45
2022/01/29 20:49:59;;;;;;;7.15;1.90;;;9.00;99.90;;;;;;20777610;28;20067;-45
2022/01/29 21:00:00;;;;;;;7.28;1.35;;;9.10;99.90;;;;;;20844719;28;20076;-45
2022/01/29 21:10:00;;;;;;;3.95;0.90;;;9.20;99.90;;;;;;20823111;28;20045;-45
2022/01/29 21:20:02;;;;;;;3.53;1.00;;;9.20;99.90;;;;;;20844645;28;20220;-45
2022/01/29 21:30:03;;;;;;;14.40;3.17;;;9.10;99.90;;;;;;20843771;28;20751;-45
2022/01/29 21:40:05;;;;;;;10.98;1.08;;;8.90;99.90;;;;;;20848477;28;20616;-45
2022/01/29 21:50:06;;;;;;;3.92;1.33;;;8.70;99.90;;;;;;20833070;28;20128;-44
2022/01/29 22:00:08;;;;;;;19.83;2.35;;;8.50;99.90;;;;;;20832457;28;20049;-45
2022/01/29 22:10:11;;;;;;;6.55;1.10;;;8.30;99.90;;;;;;20838289;28;20461;-45
2022/01/29 22:20:12;;;;;;;5.80;1.25;;;8.20;99.90;;;;;;20865831;28;20049;-44
2022/01/29 22:30:15;;;;;;;11.60;0.90;;;8.30;99.90;;;;;;20858461;28;20029;-44
2022/01/29 22:40:16;;;;;;;8.18;1.70;;;8.20;99.90;;;;;;20863314;28;20052;-45
2022/01/29 22:50:17;;;;;;;11.63;1.67;;;8.10;99.90;;;;;;20865067;28;20055;-44
2022/01/29 23:00:20;;;;;;;8.23;1.70;;;7.80;99.90;;;;;;20845097;28;20048;-44
2022/01/29 23:20:51;;;;;;;11.10;1.15;;;7.80;99.90;;;;;;20838221;28;20048;-44
2022/01/29 23:30:51;;;;;;;4.07;0.73;;;7.80;99.90;;;;;;20847945;28;20037;-44
2022/01/29 23:40:52;;;;;;;9.10;1.83;;;7.70;99.90;;;;;;20834980;28;20045;-44
2022/01/29 23:50:54;;;;;;;10.73;1.42;;;7.70;99.90;;;;;;20838106;28;20632;-44
